Time;durP1;ratioP1;P1;durP2;ratioP2;P2;SDS_P1;SDS_P2;PMS_P1;PMS_P2;Temp;Humidity;BMP_temperature;BMP_pressure;BME280_temperature;BME280_humidity;BME280_pressure;Samples;Min_cycle;Max_cycle;Signal;HPM_P1;HPM_P2
2023/09/25 00:01:16;;;;;;;3.55;1.40;;;;;;;11.58;100.00;99489.66;5019957;28;20029;-74
2023/09/25 00:03:41;;;;;;;3.00;1.23;;;;;;;11.61;100.00;99488.44;5031801;28;20057;-74
2023/09/25 00:06:07;;;;;;;3.97;1.30;;;;;;;11.59;100.00;99499.47;5032357;28;20072;-71
2023/09/25 00:08:32;;;;;;;3.30;0.95;;;;;;;11.39;100.00;99498.41;5022061;28;20024;-72
2023/09/25 00:10:57;;;;;;;2.15;1.15;;;;;;;11.25;100.00;99485.75;5026184;28;20034;-71
2023/09/25 00:13:23;;;;;;;4.18;1.50;;;;;;;11.03;100.00;99487.56;5019283;28;20067;-72
2023/09/25 00:15:49;;;;;;;1.75;1.00;;;;;;;10.63;100.00;99482.47;5030414;28;20032;-72
2023/09/25 00:18:14;;;;;;;4.30;1.52;;;;;;;10.30;100.00;99503.63;5018965;28;20084;-71
2023/09/25 00:20:41;;;;;;;2.97;1.63;;;;;;;9.87;100.00;99487.91;5018319;28;20034;-71
2023/09/25 00:23:06;;;;;;;3.58;1.40;;;;;;;9.66;100.00;99488.59;5011667;28;20033;-73
2023/09/25 00:25:32;;;;;;;3.10;1.40;;;;;;;9.61;100.00;99499.09;5011104;28;20416;-72
2023/09/25 00:27:58;;;;;;;6.05;1.58;;;;;;;9.47;100.00;99507.16;5017627;28;20026;-72
2023/09/25 00:30:23;;;;;;;2.42;1.35;;;;;;;9.44;100.00;99493.00;5013582;28;21666;-72
2023/09/25 00:32:50;;;;;;;2.95;1.42;;;;;;;9.37;100.00;99499.28;5031312;28;20033;-73
2023/09/25 00:35:16;;;;;;;3.70;1.33;;;;;;;9.24;100.00;99515.22;5017438;28;20026;-74
2023/09/25 00:37:42;;;;;;;7.15;1.50;;;;;;;9.19;100.00;99507.66;5011000;28;20022;-74
2023/09/25 00:40:30;;;;;;;5.68;1.67;;;;;;;8.81;100.00;99468.91;5022377;28;20507;-73
2023/09/25 00:42:54;;;;;;;2.63;1.15;;;;;;;9.14;100.00;99493.84;5031854;28;20041;-73
2023/09/25 00:45:20;;;;;;;3.08;1.40;;;;;;;8.90;100.00;99474.06;5018557;28;20481;-73
2023/09/25 00:47:45;;;;;;;3.42;1.17;;;;;;;9.10;100.00;99511.44;5012441;28;20025;-74
2023/09/25 00:50:11;;;;;;;3.97;1.50;;;;;;;8.75;100.00;99478.50;5017860;28;20030;-73
2023/09/25 00:52:41;;;;;;;4.38;1.40;;;;;;;8.86;100.00;99518.63;5031860;28;20053;-74
2023/09/25 00:55:07;;;;;;;4.63;1.33;;;;;;;8.79;100.00;99520.31;5022991;28;20045;-74
2023/09/25 00:57:35;;;;;;;5.10;1.60;;;;;;;8.64;100.00;99504.00;5020629;28;20417;-73
2023/09/25 01:00:02;;;;;;;5.22;1.48;;;;;;;8.60;100.00;99500.00;5019586;28;20070;-74
2023/09/25 01:02:28;;;;;;;2.92;1.30;;;;;;;8.76;100.00;99518.81;5029341;28;20111;-74
2023/09/25 01:04:53;;;;;;;4.68;1.33;;;;;;;8.72;100.00;99508.53;5029457;28;20025;-73
2023/09/25 01:07:19;;;;;;;4.30;1.52;;;;;;;8.74;100.00;99506.50;5032101;28;20036;-74
2023/09/25 01:10:06;;;;;;;2.78;1.42;;;;;;;8.63;100.00;99498.81;5030335;28;20040;-74
2023/09/25 01:12:32;;;;;;;2.97;1.20;;;;;;;8.76;100.00;99515.28;5031138;28;20060;-74
2023/09/25 01:14:58;;;;;;;3.53;1.45;;;;;;;8.78;100.00;99513.25;5029973;28;20053;-73
2023/09/25 01:17:24;;;;;;;3.10;1.40;;;;;;;8.77;100.00;99508.84;5029580;28;20075;-74
2023/09/25 01:19:49;;;;;;;3.95;1.45;;;;;;;8.77;100.00;99533.97;5017599;28;20030;-73
2023/09/25 01:22:15;;;;;;;2.92;1.50;;;;;;;8.65;100.00;99486.81;5030574;28;20025;-74
2023/09/25 01:24:40;;;;;;;3.45;1.60;;;;;;;8.71;100.00;99518.50;5025947;28;20100;-73
2023/09/25 01:27:05;;;;;;;3.38;1.40;;;;;;;8.59;100.00;99511.78;5028501;28;20401;-74
2023/09/25 01:29:30;;;;;;;3.05;1.23;;;;;;;8.43;100.00;99499.19;5018350;28;20025;-74
2023/09/25 01:31:56;;;;;;;2.03;1.30;;;;;;;8.41;100.00;99500.38;5025294;28;20041;-73
2023/09/25 01:34:21;;;;;;;6.13;1.80;;;;;;;8.50;100.00;99504.75;5027213;28;20112;-75
2023/09/25 01:36:46;;;;;;;3.75;1.73;;;;;;;8.43;100.00;99499.19;5024860;28;20136;-74
2023/09/25 01:39:12;;;;;;;2.47;1.27;;;;;;;8.40;100.00;99502.22;5032284;28;20040;-73
2023/09/25 01:41:37;;;;;;;3.40;1.40;;;;;;;8.39;100.00;99503.25;5018754;28;20104;-74
2023/09/25 01:44:03;;;;;;;2.60;1.40;;;;;;;8.29;100.00;99479.13;5023587;28;20854;-75
2023/09/25 01:46:28;;;;;;;1.90;1.15;;;;;;;8.29;100.00;99484.53;5031031;28;20057;-73
2023/09/25 01:48:53;;;;;;;2.40;1.10;;;;;;;8.10;100.00;99485.75;5024847;28;20104;-73
2023/09/25 01:51:18;;;;;;;2.90;1.40;;;;;;;8.13;100.00;99480.00;5028126;28;20615;-73
2023/09/25 01:53:46;;;;;;;4.28;1.42;;;;;;;8.19;100.00;99480.34;5030169;28;20025;-73
2023/09/25 01:56:14;;;;;;;3.13;1.48;;;;;;;8.18;100.00;99498.38;5021505;28;20029;-73
2023/09/25 01:58:41;;;;;;;2.50;1.38;;;;;;;8.16;100.00;99483.38;5033747;28;20028;-73
2023/09/25 02:01:06;;;;;;;2.67;1.30;;;;;;;7.84;100.00;99450.09;5034756;28;20052;-74
2023/09/25 02:03:31;;;;;;;3.00;1.30;;;;;;;7.87;100.00;99485.59;5034506;28;20034;-75
2023/09/25 02:05:57;;;;;;;3.58;1.50;;;;;;;7.92;100.00;99495.88;5033395;28;20472;-73
2023/09/25 02:08:22;;;;;;;3.00;1.38;;;;;;;7.86;100.00;99491.16;5029818;28;20025;-73
2023/09/25 02:10:47;;;;;;;2.17;1.17;;;;;;;7.83;100.00;99478.88;5030356;28;20117;-74
2023/09/25 02:13:13;;;;;;;2.78;1.30;;;;;;;7.76;100.00;99485.09;5020202;28;20037;-75
2023/09/25 02:15:39;;;;;;;2.85;1.42;;;;;;;7.73;100.00;99475.50;5014655;28;20022;-73
2023/09/25 02:18:04;;;;;;;3.00;1.65;;;;;;;7.80;100.00;99492.66;5014741;28;20025;-74
2023/09/25 02:20:30;;;;;;;4.40;1.50;;;;;;;7.73;100.00;99488.13;5017092;28;20025;-74
2023/09/25 02:22:55;;;;;;;3.30;1.40;;;;;;;7.57;100.00;99481.75;5030645;28;20030;-74
2023/09/25 02:25:20;;;;;;;2.78;1.42;;;;;;;7.34;100.00;99469.94;5025007;28;20033;-74
2023/09/25 02:27:46;;;;;;;2.92;1.50;;;;;;;7.32;100.00;99494.31;5014664;28;20064;-74
2023/09/25 02:30:11;;;;;;;2.72;1.40;;;;;;;7.32;100.00;99513.16;5014581;28;20026;-74
2023/09/25 02:32:37;;;;;;;2.58;1.55;;;;;;;7.23;100.00;99493.47;5033216;28;20509;-73
2023/09/25 02:35:04;;;;;;;2.85;1.42;;;;;;;7.18;100.00;99501.19;5033737;28;20481;-74
2023/09/25 02:37:31;;;;;;;2.55;1.38;;;;;;;7.05;100.00;99511.56;5033368;28;20492;-74
2023/09/25 02:39:56;;;;;;;4.05;1.70;;;;;;;6.94;100.00;99490.34;5034703;28;20044;-74
2023/09/25 02:42:22;;;;;;;3.80;1.35;;;;;;;6.86;100.00;99501.91;5024625;28;20033;-73
2023/09/25 02:44:47;;;;;;;6.78;1.90;;;;;;;6.86;100.00;99493.84;5026102;28;20025;-72
2023/09/25 02:47:12;;;;;;;3.42;1.50;;;;;;;6.84;100.00;99495.00;5027772;28;20505;-74
2023/09/25 02:49:37;;;;;;;3.35;1.52;;;;;;;7.00;100.00;99487.84;5018304;28;20028;-75
2023/09/25 02:52:03;;;;;;;3.05;1.73;;;;;;;7.06;100.00;99489.03;5027430;28;20029;-74
2023/09/25 02:54:28;;;;;;;5.68;1.50;;;;;;;7.12;100.00;99509.06;5016638;28;20026;-74
2023/09/25 02:56:54;;;;;;;3.72;1.63;;;;;;;6.93;100.00;99496.72;5016901;28;20030;-74
2023/09/25 02:59:19;;;;;;;7.25;1.70;;;;;;;6.87;100.00;99500.09;5029026;28;20087;-74
2023/09/25 03:01:44;;;;;;;4.32;2.08;;;;;;;6.86;100.00;99499.22;5032050;28;20457;-75
2023/09/25 03:04:10;;;;;;;4.88;2.17;;;;;;;6.69;100.00;99492.09;5027897;28;20026;-75
2023/09/25 03:06:36;;;;;;;4.53;1.80;;;;;;;6.83;100.00;99504.09;5028764;28;20481;-74
2023/09/25 03:09:01;;;;;;;4.90;1.90;;;;;;;6.73;100.00;99513.13;5022073;28;20117;-73
2023/09/25 03:11:27;;;;;;;6.07;1.95;;;;;;;6.62;100.00;99491.06;5032191;28;20107;-75
2023/09/25 03:13:52;;;;;;;3.50;1.60;;;;;;;6.67;100.00;99484.19;5031624;28;20036;-75
2023/09/25 03:16:18;;;;;;;4.00;1.80;;;;;;;6.55;100.00;99501.63;5032169;28;20041;-74
2023/09/25 03:18:44;;;;;;;4.05;1.80;;;;;;;6.53;100.00;99523.28;5031946;28;20025;-75
2023/09/25 03:21:14;;;;;;;3.40;1.65;;;;;;;6.45;100.00;99527.78;5033576;28;20033;-74
2023/09/25 03:23:40;;;;;;;3.38;1.33;;;;;;;6.28;100.00;99522.28;5031858;28;20401;-76
2023/09/25 03:26:16;;;;;;;5.43;1.70;;;;;;;6.33;100.00;99529.88;5033104;28;20102;-73
2023/09/25 03:28:43;;;;;;;3.60;1.67;;;;;;;6.43;100.00;99527.94;5031354;28;20020;-74
2023/09/25 03:31:09;;;;;;;2.22;1.48;;;;;;;6.25;100.00;99511.00;5024257;28;20037;-74
2023/09/25 03:33:34;;;;;;;3.42;1.80;;;;;;;6.31;100.00;99513.06;5023933;28;20029;-74
2023/09/25 03:36:00;;;;;;;6.32;2.00;;;;;;;6.40;100.00;99525.56;5033248;28;20026;-76
2023/09/25 03:38:25;;;;;;;5.15;2.17;;;;;;;6.38;100.00;99530.25;5032536;28;20017;-76
2023/09/25 03:40:50;;;;;;;6.20;2.33;;;;;;;6.16;100.00;99518.19;5033626;28;20031;-76
2023/09/25 03:43:16;;;;;;;3.80;1.60;;;;;;;6.02;100.00;99518.75;5032612;28;20116;-76
2023/09/25 03:45:41;;;;;;;3.05;2.10;;;;;;;6.11;100.00;99531.25;5028168;28;20405;-76
2023/09/25 03:48:06;;;;;;;7.88;2.33;;;;;;;5.96;100.00;99524.75;5025966;28;20075;-75
2023/09/25 03:50:32;;;;;;;9.40;2.58;;;;;;;5.92;100.00;99516.97;5032960;28;20148;-75
2023/09/25 03:53:00;;;;;;;7.82;2.47;;;;;;;5.92;100.00;99513.41;5021041;28;20048;-75
2023/09/25 03:55:25;;;;;;;4.05;1.80;;;;;;;5.99;100.00;99524.44;5022546;28;20041;-75
2023/09/25 03:57:50;;;;;;;4.57;2.40;;;;;;;5.97;100.00;99518.38;5021491;28;20076;-74
2023/09/25 04:00:16;;;;;;;6.53;2.10;;;;;;;5.89;100.00;99525.34;5023871;28;20465;-73
2023/09/25 04:02:42;;;;;;;5.65;2.55;;;;;;;5.86;100.00;99506.84;5033094;28;20029;-73
2023/09/25 04:05:08;;;;;;;4.65;2.72;;;;;;;5.93;100.00;99525.88;5031767;28;20025;-74
2023/09/25 04:07:34;;;;;;;7.95;2.45;;;;;;;5.99;100.00;99527.94;5028355;28;20064;-73
2023/09/25 04:09:59;;;;;;;10.32;2.70;;;;;;;5.84;100.00;99519.59;5031816;28;20053;-75
2023/09/25 04:12:24;;;;;;;4.05;2.33;;;;;;;5.91;100.00;99523.31;5030773;28;20354;-73
2023/09/25 04:14:53;;;;;;;7.80;2.72;;;;;;;5.89;100.00;99540.59;5027827;28;20032;-73
2023/09/25 04:17:20;;;;;;;6.27;2.80;;;;;;;5.78;100.00;99539.00;5021242;28;20041;-76
2023/09/25 04:19:46;;;;;;;8.73;2.95;;;;;;;5.73;100.00;99525.19;5036889;28;20120;-74
2023/09/25 04:22:11;;;;;;;4.53;2.72;;;;;;;5.65;100.00;99517.06;5029881;28;20123;-74
2023/09/25 04:24:37;;;;;;;7.88;2.70;;;;;;;5.69;100.00;99531.88;5018036;28;20037;-74
2023/09/25 04:27:02;;;;;;;6.72;3.40;;;;;;;5.59;100.00;99507.78;5022871;28;20029;-74
2023/09/25 04:29:28;;;;;;;7.90;4.43;;;;;;;5.79;100.00;99546.06;5028208;28;20370;-74
2023/09/25 04:31:53;;;;;;;6.80;4.18;;;;;;;5.74;100.00;99529.59;5028820;28;20033;-74
2023/09/25 04:34:19;;;;;;;11.13;4.70;;;;;;;5.72;100.00;99504.72;5033675;28;20040;-73
2023/09/25 04:36:46;;;;;;;8.10;4.47;;;;;;;5.77;100.00;99517.69;5031497;28;20446;-74
2023/09/25 04:39:12;;;;;;;8.77;4.38;;;;;;;5.83;100.00;99536.69;5029926;28;20665;-72
2023/09/25 04:41:37;;;;;;;10.15;4.55;;;;;;;5.67;100.00;99507.88;5022791;28;20029;-74
2023/09/25 04:44:04;;;;;;;9.05;4.10;;;;;;;5.63;100.00;99522.59;5020871;28;20033;-75
2023/09/25 04:46:30;;;;;;;5.57;3.20;;;;;;;5.59;100.00;99526.59;5013614;28;20033;-74
2023/09/25 04:48:56;;;;;;;3.83;2.28;;;;;;;5.56;100.00;99524.22;5018338;28;20032;-74
2023/09/25 04:51:21;;;;;;;5.90;2.22;;;;;;;5.51;100.00;99520.31;5012139;28;20125;-74
2023/09/25 04:53:47;;;;;;;4.28;2.42;;;;;;;5.34;100.00;99521.97;5029324;28;20079;-75
2023/09/25 04:56:20;;;;;;;3.78;1.95;;;;;;;5.45;100.00;99544.06;5024769;28;20053;-73
2023/09/25 04:58:46;;;;;;;4.47;2.40;;;;;;;5.34;100.00;99524.66;5023886;28;20021;-74
2023/09/25 05:01:11;;;;;;;5.93;2.50;;;;;;;5.13;100.00;99508.84;5030678;28;20067;-73
2023/09/25 05:03:37;;;;;;;3.80;2.13;;;;;;;5.17;100.00;99520.97;5019309;28;20409;-74
2023/09/25 05:06:02;;;;;;;4.10;2.60;;;;;;;5.06;100.00;99511.28;5017404;28;20500;-77
2023/09/25 05:08:27;;;;;;;5.25;2.65;;;;;;;5.21;100.00;99538.44;5025076;28;20053;-78
2023/09/25 05:10:53;;;;;;;5.07;2.92;;;;;;;5.07;100.00;99514.81;5018671;28;20104;-77
2023/09/25 05:13:18;;;;;;;4.35;2.45;;;;;;;5.22;100.00;99526.72;5023461;28;20025;-78
2023/09/25 05:15:43;;;;;;;4.70;2.95;;;;;;;5.27;100.00;99492.25;5020300;28;20025;-78
2023/09/25 05:18:08;;;;;;;4.45;2.72;;;;;;;5.51;100.00;99544.47;5023797;28;20030;-78
2023/09/25 05:20:34;;;;;;;4.47;2.83;;;;;;;5.36;100.00;99536.09;5012774;28;20026;-77
2023/09/25 05:22:59;;;;;;;7.05;2.83;;;;;;;5.46;100.00;99543.06;5012747;28;20030;-78
2023/09/25 05:25:26;;;;;;;5.03;2.83;;;;;;;5.51;100.00;99555.19;5022229;28;20026;-78
2023/09/25 05:27:55;;;;;;;5.38;3.17;;;;;;;5.54;100.00;99544.16;5030499;28;20033;-79
2023/09/25 05:30:20;;;;;;;6.95;3.53;;;;;;;5.68;100.00;99546.28;5032051;28;20040;-78
2023/09/25 05:32:48;;;;;;;4.35;2.60;;;;;;;5.74;100.00;99553.75;5015748;28;20482;-78
2023/09/25 05:35:14;;;;;;;4.28;2.40;;;;;;;5.83;100.00;99560.03;5030819;28;20116;-81
2023/09/25 05:37:40;;;;;;;3.42;2.13;;;;;;;5.78;100.00;99533.63;5039931;28;20060;-79
2023/09/25 05:40:09;;;;;;;3.97;2.03;;;;;;;5.87;100.00;99545.31;5031044;28;20107;-79
2023/09/25 05:42:34;;;;;;;;;;;;;;;6.04;100.00;99554.34;5031420;28;20030;-79
2023/09/25 05:45:00;;;;;;;3.53;2.00;;;;;;;6.07;100.00;99552.19;5028277;28;20024;-79
2023/09/25 05:47:25;;;;;;;6.35;2.20;;;;;;;6.09;100.00;99538.63;5029464;28;20473;-80
2023/09/25 05:49:50;;;;;;;3.05;2.42;;;;;;;6.16;100.00;99534.31;5026522;28;20071;-79
2023/09/25 05:52:16;;;;;;;5.10;2.28;;;;;;;6.42;100.00;99550.44;5031912;28;20044;-78
2023/09/25 05:54:42;;;;;;;5.45;2.53;;;;;;;7.41;100.00;99538.22;5018281;28;20026;-78
2023/09/25 05:57:08;;;;;;;5.18;2.28;;;;;;;10.27;100.00;99490.44;5031837;28;20036;-78
2023/09/25 05:59:36;;;;;;;2.20;1.45;;;;;;;12.90;100.00;99477.28;5034890;28;20021;-76
2023/09/25 06:02:02;;;;;;;6.75;1.75;;;;;;;14.08;100.00;99455.19;5033879;28;20057;-79
2023/09/25 06:04:28;;;;;;;2.70;1.60;;;;;;;15.03;100.00;99461.06;5031182;28;20060;-78
2023/09/25 06:06:53;;;;;;;4.30;1.88;;;;;;;15.40;100.00;99444.94;5035560;28;20463;-78
2023/09/25 06:09:19;;;;;;;5.70;1.75;;;;;;;16.81;100.00;99440.81;5034455;28;20017;-78
2023/09/25 06:11:44;;;;;;;3.30;1.50;;;;;;;17.69;96.69;99444.91;5035423;28;20029;-77
2023/09/25 06:14:10;;;;;;;2.78;1.30;;;;;;;18.02;89.71;99454.50;5031045;28;20393;-76
2023/09/25 06:16:36;;;;;;;3.35;1.60;;;;;;;18.53;82.91;99442.84;5030022;28;20096;-77
2023/09/25 06:19:03;;;;;;;3.85;1.50;;;;;;;18.87;81.54;99458.69;5034050;28;20044;-78
2023/09/25 06:21:29;;;;;;;4.65;1.65;;;;;;;19.08;77.53;99448.97;5033861;28;20497;-77
2023/09/25 06:23:57;;;;;;;6.35;1.65;;;;;;;19.55;72.59;99459.78;5027126;28;20481;-78
2023/09/25 06:26:23;;;;;;;5.32;2.03;;;;;;;19.86;68.85;99459.28;5028986;28;20481;-78
2023/09/25 06:28:48;;;;;;;6.43;2.03;;;;;;;20.24;68.46;99463.19;5024972;28;20033;-79
2023/09/25 06:31:14;;;;;;;8.80;2.00;;;;;;;21.20;65.91;99462.09;5027161;28;20503;-79
2023/09/25 06:33:40;;;;;;;7.07;2.20;;;;;;;22.15;61.54;99451.47;5026082;28;20029;-80
2023/09/25 06:36:05;;;;;;;5.35;1.88;;;;;;;22.95;57.51;99449.53;5031722;28;20013;-77
2023/09/25 06:38:31;;;;;;;7.30;1.95;;;;;;;23.06;56.15;99453.19;5028358;28;20306;-78
2023/09/25 06:40:56;;;;;;;3.85;1.98;;;;;;;24.01;53.88;99454.81;5026235;28;20025;-77
2023/09/25 06:43:22;;;;;;;5.55;2.15;;;;;;;23.75;54.15;99445.69;5027943;28;20026;-78
2023/09/25 06:45:47;;;;;;;6.05;1.83;;;;;;;24.62;51.47;99451.19;5031472;28;20036;-77
2023/09/25 06:48:12;;;;;;;3.90;1.85;;;;;;;25.86;49.99;99455.94;5027427;28;20017;-78
2023/09/25 06:50:37;;;;;;;6.05;2.65;;;;;;;26.61;47.17;99454.75;5026925;28;20501;-78
2023/09/25 06:53:03;;;;;;;7.70;2.15;;;;;;;26.41;45.91;99447.44;5024653;28;20037;-78
2023/09/25 06:55:30;;;;;;;5.93;2.10;;;;;;;25.82;46.32;99456.78;5027602;28;20121;-75
2023/09/25 06:57:55;;;;;;;4.15;1.95;;;;;;;27.10;44.91;99456.41;5033461;28;20342;-73
2023/09/25 07:00:21;;;;;;;4.93;2.10;;;;;;;27.55;44.50;99451.41;5029215;28;20026;-78
2023/09/25 07:02:46;;;;;;;5.63;2.08;;;;;;;26.86;45.73;99437.00;5033585;28;20036;-79
2023/09/25 07:05:11;;;;;;;4.95;2.05;;;;;;;24.90;47.78;99456.09;5032234;28;20040;-78
2023/09/25 07:07:37;;;;;;;6.20;2.20;;;;;;;25.67;47.37;99449.38;5033518;28;20021;-78
2023/09/25 07:10:06;;;;;;;3.00;1.90;;;;;;;26.79;45.70;99434.56;5025825;28;20128;-79
2023/09/25 07:12:33;;;;;;;8.15;2.00;;;;;;;27.32;45.17;99447.53;5015035;28;20025;-79
2023/09/25 07:15:00;;;;;;;8.70;2.47;;;;;;;26.19;45.13;99448.72;5023918;28;20486;-78
2023/09/25 07:17:26;;;;;;;4.32;1.88;;;;;;;27.05;44.95;99448.16;5040656;28;20021;-85
2023/09/25 07:19:52;;;;;;;6.15;2.10;;;;;;;27.50;44.60;99455.06;5057314;28;20086;-85
2023/09/25 07:22:18;;;;;;;7.45;1.83;;;;;;;28.42;43.17;99444.44;5054992;28;20036;-79
2023/09/25 07:24:43;;;;;;;4.20;1.75;;;;;;;28.40;42.52;99443.94;5036824;28;20021;-79
2023/09/25 07:27:08;;;;;;;4.13;1.92;;;;;;;29.15;42.87;99447.56;5028248;28;20645;-80
2023/09/25 07:29:34;;;;;;;3.67;1.92;;;;;;;30.22;40.88;99433.94;5026040;28;20034;-79
2023/09/25 07:32:00;;;;;;;6.63;2.25;;;;;;;31.33;39.82;99433.13;5032857;28;20116;-79
2023/09/25 07:34:29;;;;;;;4.78;1.77;;;;;;;32.13;37.88;99439.28;5024747;28;20125;-79
2023/09/25 07:36:54;;;;;;;;;;;;;;;32.18;37.79;99460.69;5032118;28;20033;-79
2023/09/25 07:39:22;;;;;;;4.47;1.57;;;;;;;32.90;36.72;99448.63;5035184;28;19893;-79
2023/09/25 07:41:50;;;;;;;3.63;1.70;;;;;;;33.66;35.42;99443.28;5027385;28;20376;-80
2023/09/25 07:44:16;;;;;;;5.20;1.40;;;;;;;33.71;35.68;99446.72;5028439;28;20034;-79
2023/09/25 07:46:43;;;;;;;7.18;1.75;;;;;;;34.03;35.45;99442.31;5026183;28;20105;-79
2023/09/25 07:49:09;;;;;;;4.47;1.75;;;;;;;34.11;35.31;99454.66;5028680;28;20017;-80
2023/09/25 07:51:34;;;;;;;4.50;1.88;;;;;;;33.80;35.43;99444.66;5014681;28;20145;-79
2023/09/25 07:54:02;;;;;;;3.25;1.80;;;;;;;33.65;36.04;99455.69;5025348;28;20027;-79
2023/09/25 07:56:28;;;;;;;4.63;1.70;;;;;;;34.06;36.25;99449.28;5030574;28;20040;-80
2023/09/25 07:58:55;;;;;;;6.68;1.80;;;;;;;34.13;36.35;99449.50;5020520;28;20022;-80
2023/09/25 08:01:22;;;;;;;6.37;1.53;;;;;;;33.64;36.21;99443.63;5029031;28;20083;-79
2023/09/25 08:03:49;;;;;;;5.65;1.95;;;;;;;32.89;37.35;99447.00;5029641;28;20695;-82
2023/09/25 08:06:15;;;;;;;6.78;1.65;;;;;;;33.29;36.99;99432.63;5031227;28;20044;-80
2023/09/25 08:08:40;;;;;;;3.03;1.40;;;;;;;33.89;36.61;99453.00;5035992;28;20030;-80
2023/09/25 08:11:06;;;;;;;2.70;1.40;;;;;;;33.42;36.72;99441.94;5033584;28;20076;-80
2023/09/25 08:13:31;;;;;;;4.35;1.38;;;;;;;35.67;35.31;99453.94;5016081;28;20117;-80
2023/09/25 08:16:06;;;;;;;4.40;1.70;;;;;;;35.49;35.19;99456.97;5019983;28;20037;-79
2023/09/25 08:18:31;;;;;;;3.20;1.30;;;;;;;34.81;35.61;99443.50;5022739;28;20723;-80
2023/09/25 08:20:57;;;;;;;2.65;1.40;;;;;;;32.42;36.80;99446.16;5019014;28;20064;-80
2023/09/25 08:23:22;;;;;;;8.43;1.48;;;;;;;34.29;35.40;99454.47;5030930;28;20025;-81
2023/09/25 08:25:48;;;;;;;2.95;1.33;;;;;;;34.17;35.18;99467.31;5030253;28;20388;-79
2023/09/25 08:28:14;;;;;;;2.35;1.40;;;;;;;34.13;35.67;99462.75;5023561;28;20095;-79
2023/09/25 08:30:40;;;;;;;5.03;1.20;;;;;;;34.82;34.31;99473.28;5027742;28;20026;-80
2023/09/25 08:33:05;;;;;;;3.90;1.30;;;;;;;36.77;32.35;99464.75;5029086;28;20021;-79
2023/09/25 08:35:31;;;;;;;3.50;1.30;;;;;;;36.45;31.92;99454.59;5028735;28;20033;-78
2023/09/25 08:37:56;;;;;;;3.33;1.15;;;;;;;37.46;30.39;99455.94;5030461;28;20076;-78
2023/09/25 08:40:22;;;;;;;2.95;1.40;;;;;;;36.85;31.53;99462.91;5027392;28;20412;-77
2023/09/25 08:42:48;;;;;;;2.17;1.30;;;;;;;36.46;31.41;99459.03;5017823;28;20026;-77
2023/09/25 08:45:14;;;;;;;2.42;1.10;;;;;;;35.79;31.89;99473.63;5025736;28;20033;-78
2023/09/25 08:47:41;;;;;;;2.40;1.13;;;;;;;35.99;31.33;99463.31;5026079;28;20053;-78
2023/09/25 08:50:09;;;;;;;2.35;1.30;;;;;;;37.78;29.95;99473.63;5019687;28;20033;-79
2023/09/25 08:52:34;;;;;;;2.10;1.05;;;;;;;37.54;29.27;99443.66;5024853;28;20104;-79
2023/09/25 08:54:59;;;;;;;4.93;1.10;;;;;;;37.02;30.40;99456.06;5030098;28;20087;-77
2023/09/25 08:57:25;;;;;;;1.83;1.00;;;;;;;37.25;30.51;99453.44;5022226;28;20018;-79
2023/09/25 08:59:50;;;;;;;1.60;1.00;;;;;;;36.24;31.38;99464.09;5030994;28;20083;-78
2023/09/25 09:02:17;;;;;;;3.38;1.27;;;;;;;37.13;29.98;99462.00;5032678;28;20056;-78
2023/09/25 09:04:42;;;;;;;3.60;0.95;;;;;;;35.54;31.82;99461.56;5029643;28;20033;-77
2023/09/25 09:07:09;;;;;;;3.53;1.10;;;;;;;34.50;31.94;99466.47;5019761;28;20017;-80
2023/09/25 09:09:35;;;;;;;2.47;1.00;;;;;;;36.40;29.41;99461.31;5035061;28;20034;-80
2023/09/25 09:12:01;;;;;;;2.60;1.00;;;;;;;34.82;31.20;99472.44;5042807;28;20034;-81
2023/09/25 09:14:41;;;;;;;2.97;1.00;;;;;;;36.59;29.60;99455.00;5051728;28;20037;-81
2023/09/25 09:17:09;;;;;;;2.15;1.05;;;;;;;36.54;29.90;99456.03;5036301;28;20514;-82
2023/09/25 09:19:55;;;;;;;2.65;0.90;;;;;;;35.91;29.88;99465.13;5044361;28;20022;-81
2023/09/25 09:22:21;;;;;;;1.52;1.08;;;;;;;36.25;29.80;99462.09;5037199;28;20037;-81
2023/09/25 09:24:51;;;;;;;1.55;1.02;;;;;;;36.45;29.90;99449.78;5041360;28;20039;-81
2023/09/25 09:27:20;;;;;;;2.33;1.20;;;;;;;34.05;31.18;99448.41;5045344;28;20105;-81
2023/09/25 09:29:46;;;;;;;4.47;1.20;;;;;;;35.29;30.59;99457.94;5044087;28;20121;-82
2023/09/25 09:32:14;;;;;;;3.55;1.00;;;;;;;35.66;29.94;99441.88;5038876;28;20448;-82
2023/09/25 09:34:40;;;;;;;1.77;1.00;;;;;;;35.19;30.09;99458.41;5037676;28;20034;-82
2023/09/25 09:37:09;;;;;;;1.83;1.00;;;;;;;34.31;30.82;99452.97;5039333;28;20045;-80
2023/09/25 09:39:36;;;;;;;3.03;1.08;;;;;;;34.81;30.72;99454.75;5029583;28;20029;-77
2023/09/25 09:42:07;;;;;;;2.60;1.20;;;;;;;33.87;31.45;99449.72;5033932;28;20129;-77
2023/09/25 09:44:32;;;;;;;1.77;1.08;;;;;;;34.09;30.94;99451.38;5027390;28;20453;-77
2023/09/25 09:47:08;;;;;;;10.60;1.15;;;;;;;34.30;31.84;99447.69;5031182;28;20056;-78
2023/09/25 09:49:36;;;;;;;1.58;0.90;;;;;;;36.31;29.53;99447.34;5039309;28;20049;-74
2023/09/25 09:52:02;;;;;;;;;;;;;;;35.99;30.51;99450.06;5034680;28;20029;-76
2023/09/25 09:54:30;;;;;;;5.72;1.00;;;;;;;35.75;30.44;99442.53;5032701;28;19992;-76
2023/09/25 09:56:59;;;;;;;3.22;0.90;;;;;;;34.81;31.75;99417.38;5035070;28;20535;-76
2023/09/25 09:59:25;;;;;;;3.45;1.17;;;;;;;35.91;29.73;99442.59;5033316;28;20036;-76
2023/09/25 10:01:50;;;;;;;1.90;1.10;;;;;;;33.98;31.93;99433.28;5031031;28;20036;-75
2023/09/25 10:04:16;;;;;;;2.35;1.00;;;;;;;33.92;31.25;99423.44;5033555;28;20389;-76
2023/09/25 10:06:53;;;;;;;3.03;1.17;;;;;;;33.13;32.14;99437.19;5023684;28;20026;-75
2023/09/25 10:09:18;;;;;;;3.33;1.00;;;;;;;33.74;31.70;99420.75;5014849;28;20030;-76
2023/09/25 10:11:52;;;;;;;1.75;0.82;;;;;;;34.76;31.91;99438.09;5014678;28;20022;-76
2023/09/25 10:14:22;;;;;;;2.80;1.00;;;;;;;35.69;30.60;99424.25;5018807;28;20021;-76
2023/09/25 10:17:03;;;;;;;3.80;1.00;;;;;;;36.40;30.64;99431.13;5025818;28;20396;-76
2023/09/25 10:19:40;;;;;;;4.03;1.05;;;;;;;36.08;30.21;99435.03;5025331;28;20060;-76
2023/09/25 10:22:29;;;;;;;2.10;1.00;;;;;;;34.61;32.40;99431.19;5028691;28;20057;-76
2023/09/25 10:25:12;;;;;;;1.55;1.00;;;;;;;35.51;31.86;99422.88;5017954;28;20053;-76
2023/09/25 10:27:38;;;;;;;3.97;1.13;;;;;;;37.37;29.94;99422.28;5030000;28;20115;-76
2023/09/25 10:30:11;;;;;;;3.30;0.90;;;;;;;36.14;30.67;99417.53;5019051;28;20060;-78
2023/09/25 10:32:38;;;;;;;2.85;0.95;;;;;;;36.87;30.15;99415.44;5026281;28;20104;-77
2023/09/25 10:35:35;;;;;;;4.13;1.15;;;;;;;36.40;30.20;99419.84;5028693;28;20025;-77
2023/09/25 10:38:16;;;;;;;2.65;1.10;;;;;;;36.28;30.00;99405.81;5033824;28;20102;-78
2023/09/25 10:40:46;;;;;;;2.15;1.10;;;;;;;36.92;30.02;99406.69;5021640;28;20025;-77
2023/09/25 10:43:14;;;;;;;2.35;1.30;;;;;;;36.82;30.02;99393.97;5024744;28;20064;-77
2023/09/25 10:45:39;;;;;;;2.85;0.85;;;;;;;36.59;29.34;99410.69;5031591;28;20032;-77
2023/09/25 10:48:06;;;;;;;4.00;1.38;;;;;;;35.68;30.13;99410.53;5032873;28;20045;-77
2023/09/25 10:50:32;;;;;;;1.10;0.80;;;;;;;37.00;28.71;99402.06;5032818;28;20507;-77
2023/09/25 10:52:57;;;;;;;2.97;1.25;;;;;;;35.15;30.17;99410.50;5033308;28;20037;-77
2023/09/25 10:55:23;;;;;;;1.98;1.00;;;;;;;35.91;29.44;99394.72;5031885;28;20087;-77
2023/09/25 10:57:49;;;;;;;2.65;1.00;;;;;;;35.94;29.65;99396.81;5030278;28;20029;-78
2023/09/25 11:00:18;;;;;;;3.13;1.17;;;;;;;35.55;30.59;99404.06;5034114;28;20044;-79
2023/09/25 11:02:44;;;;;;;3.85;1.30;;;;;;;35.43;30.85;99381.63;5020347;28;20429;-77
2023/09/25 11:05:10;;;;;;;1.92;1.05;;;;;;;35.74;29.95;99409.13;5033026;28;20025;-77
2023/09/25 11:07:36;;;;;;;2.47;1.10;;;;;;;36.05;30.49;99391.47;5034055;28;20469;-77
2023/09/25 11:10:03;;;;;;;1.55;1.10;;;;;;;35.55;30.27;99388.03;5032235;28;20036;-78
2023/09/25 11:12:30;;;;;;;3.10;1.20;;;;;;;34.75;30.99;99396.31;5019284;28;20440;-76
2023/09/25 11:14:57;;;;;;;3.42;1.20;;;;;;;34.61;30.74;99377.81;5026630;28;20030;-76
2023/09/25 11:17:23;;;;;;;2.50;1.10;;;;;;;35.04;29.88;99392.44;5027162;28;20029;-76
2023/09/25 11:19:51;;;;;;;2.15;0.80;;;;;;;35.41;30.28;99387.59;5031971;28;20045;-77
2023/09/25 11:22:19;;;;;;;3.45;1.10;;;;;;;35.65;30.91;99399.97;5031393;28;20048;-70
2023/09/25 11:24:55;;;;;;;2.45;1.10;;;;;;;36.59;29.93;99388.16;5026985;28;20037;-70
2023/09/25 11:27:20;;;;;;;3.22;1.20;;;;;;;36.02;30.21;99397.00;5025441;28;20025;-70
2023/09/25 11:29:49;;;;;;;2.75;1.20;;;;;;;35.01;30.85;99398.75;5024339;28;20380;-69
2023/09/25 11:32:16;;;;;;;2.65;1.20;;;;;;;36.56;30.05;99373.97;5032163;28;20099;-70